Terminal Aerodrome Forecast
Issued by NWS

Home | Current Version | Previous Version | Text Only | Print | Product List | Glossary On
Versions: 1 2 3 4 5 6 7 8 9 10 11 12 13 14 15 16 17 18 19 20 21 22 23 24
000
FTUS44 KLIX 222330 AAA
TAFGPT
TAF AMD
KGPT 222330Z 2300/2324 17011G19KT 5SM -RA BR VCTS FEW009CB BKN021
      OVC023
     FM230100 17019G29KT 6SM SHRA VCTS OVC035CB
     FM230300 17020G30KT P6SM VCTS OVC035CB
     FM230600 17019G29KT P6SM VCSH OVC030
     FM230900 18018G27KT P6SM BKN035
     FM231200 17016G26KT P6SM BKN060=

USA.gov is the U.S. government's official web portal to all federal, state and local government web resources and services.